Time;durP1;ratioP1;P1;durP2;ratioP2;P2;SDS_P1;SDS_P2;PMS_P1;PMS_P2;Temp;Humidity;BMP_temperature;BMP_pressure;BME280_temperature;BME280_humidity;BME280_pressure;Samples;Min_cycle;Max_cycle;Signal;HPM_P1;HPM_P2
2021/12/19 00:01:06;;;;;;;0.00;0.00;;;;;;;;;;4973775;28;20209;-69
2021/12/19 00:03:50;;;;;;;0.00;0.00;;;;;;;;;;4974061;28;20233;-69
2021/12/19 00:09:07;;;;;;;0.00;0.00;;;;;;;;;;4962628;28;20198;-69
2021/12/19 00:11:37;;;;;;;0.00;0.00;;;;;;;;;;4973411;28;20202;-69
2021/12/19 00:14:07;;;;;;;0.00;0.00;;;;;;;;;;4973710;28;20210;-70
2021/12/19 00:16:37;;;;;;;0.10;0.10;;;;;;;;;;4973506;28;20256;-68
2021/12/19 00:19:06;;;;;;;0.03;0.03;;;;;;;;;;4972868;28;20202;-69
2021/12/19 00:21:36;;;;;;;0.00;0.00;;;;;;;;;;4973307;28;20217;-69
2021/12/19 00:24:05;;;;;;;0.00;0.00;;;;;;;;;;4972680;28;20655;-69
2021/12/19 00:26:34;;;;;;;0.00;0.00;;;;;;;;;;4973315;28;20217;-69
2021/12/19 00:29:04;;;;;;;0.00;0.00;;;;;;;;;;4972631;28;20695;-69
2021/12/19 00:31:35;;;;;;;0.00;0.00;;;;;;;;;;4972841;28;20245;-69
2021/12/19 00:34:04;;;;;;;0.00;0.00;;;;;;;;;;4973763;28;20225;-69
2021/12/19 00:36:33;;;;;;;0.10;0.10;;;;;;;;;;4973002;28;20576;-69
2021/12/19 00:39:02;;;;;;;0.93;0.13;;;;;;;;;;4973690;28;20205;-70
2021/12/19 00:41:31;;;;;;;0.73;0.10;;;;;;;;;;4973581;28;20301;-69
2021/12/19 00:44:08;;;;;;;1.40;0.23;;;;;;;;;;4973531;28;20565;-69
2021/12/19 00:46:47;;;;;;;0.10;0.10;;;;;;;;;;4973435;28;20226;-70
2021/12/19 00:49:20;;;;;;;0.00;0.00;;;;;;;;;;4973286;28;20256;-70
2021/12/19 00:51:49;;;;;;;0.23;0.10;;;;;;;;;;4969605;28;20210;-69
2021/12/19 00:54:19;;;;;;;0.10;0.10;;;;;;;;;;4972849;28;20289;-69
2021/12/19 00:56:49;;;;;;;0.00;0.00;;;;;;;;;;4973068;28;20232;-69
2021/12/19 00:59:18;;;;;;;0.10;0.10;;;;;;;;;;4972952;28;20217;-69
2021/12/19 01:01:50;;;;;;;0.27;0.27;;;;;;;;;;4973182;28;20206;-68
2021/12/19 01:04:20;;;;;;;0.00;0.00;;;;;;;;;;4973299;28;20203;-68
2021/12/19 01:06:49;;;;;;;0.33;0.20;;;;;;;;;;4972269;28;20705;-69
2021/12/19 01:09:19;;;;;;;0.27;0.10;;;;;;;;;;4973003;28;20268;-69
2021/12/19 01:11:49;;;;;;;0.20;0.20;;;;;;;;;;4973040;28;20601;-69
2021/12/19 01:14:18;;;;;;;0.20;0.17;;;;;;;;;;4973003;28;20245;-69
2021/12/19 01:16:47;;;;;;;0.27;0.20;;;;;;;;;;4972931;28;20705;-69
2021/12/19 01:19:18;;;;;;;0.13;0.10;;;;;;;;;;4972221;28;20201;-69
2021/12/19 01:21:47;;;;;;;0.20;0.20;;;;;;;;;;4971710;28;20678;-69
2021/12/19 01:24:16;;;;;;;0.10;0.10;;;;;;;;;;4975388;28;20265;-68
2021/12/19 01:26:45;;;;;;;0.67;0.43;;;;;;;;;;4975921;28;20308;-69
2021/12/19 01:29:15;;;;;;;0.67;0.37;;;;;;;;;;4976353;28;20617;-69
2021/12/19 01:31:44;;;;;;;0.47;0.23;;;;;;;;;;4976093;28;20206;-69
2021/12/19 01:34:14;;;;;;;0.67;0.33;;;;;;;;;;4976265;28;20241;-69
2021/12/19 01:36:45;;;;;;;0.43;0.37;;;;;;;;;;4973947;28;20224;-70
2021/12/19 01:39:20;;;;;;;0.67;0.47;;;;;;;;;;4976046;28;20208;-69
2021/12/19 01:41:50;;;;;;;0.50;0.50;;;;;;;;;;4976367;28;20190;-69
2021/12/19 01:44:19;;;;;;;0.53;0.40;;;;;;;;;;4975521;28;20757;-69
2021/12/19 01:46:48;;;;;;;0.43;0.40;;;;;;;;;;4975990;28;20312;-69
2021/12/19 01:49:21;;;;;;;0.43;0.33;;;;;;;;;;4976511;28;20290;-69
2021/12/19 01:51:52;;;;;;;0.27;0.20;;;;;;;;;;4975718;28;20210;-69
2021/12/19 01:54:21;;;;;;;0.53;0.43;;;;;;;;;;4975974;28;20292;-69
2021/12/19 01:56:50;;;;;;;0.77;0.37;;;;;;;;;;4975608;28;20239;-69
2021/12/19 01:59:19;;;;;;;0.40;0.33;;;;;;;;;;4975949;28;20222;-69
2021/12/19 02:01:50;;;;;;;0.57;0.50;;;;;;;;;;4975782;28;20209;-69
2021/12/19 02:04:21;;;;;;;0.30;0.30;;;;;;;;;;4975764;28;20210;-69
2021/12/19 02:06:52;;;;;;;0.33;0.23;;;;;;;;;;4631377;28;10000175;-69
2021/12/19 02:09:21;;;;;;;0.27;0.27;;;;;;;;;;4972953;28;20293;-70
2021/12/19 02:11:50;;;;;;;0.40;0.40;;;;;;;;;;4972346;28;20230;-69
2021/12/19 02:14:20;;;;;;;1.03;0.73;;;;;;;;;;4973885;28;20225;-69
2021/12/19 02:16:50;;;;;;;0.67;0.43;;;;;;;;;;4975883;28;20237;-69
2021/12/19 02:19:19;;;;;;;0.67;0.57;;;;;;;;;;4974886;28;20780;-70
2021/12/19 02:21:49;;;;;;;1.10;0.50;;;;;;;;;;4975465;28;20721;-69
2021/12/19 02:24:19;;;;;;;0.83;0.50;;;;;;;;;;4973285;28;20214;-69
2021/12/19 02:26:48;;;;;;;1.03;0.53;;;;;;;;;;4975573;28;20226;-68
2021/12/19 02:29:17;;;;;;;0.63;0.40;;;;;;;;;;4975318;28;20209;-69
2021/12/19 02:31:47;;;;;;;0.83;0.60;;;;;;;;;;4974430;28;20371;-69
2021/12/19 02:34:26;;;;;;;0.37;0.33;;;;;;;;;;4972628;28;20477;-69
2021/12/19 02:37:02;;;;;;;0.57;0.53;;;;;;;;;;4959452;28;20506;-70
2021/12/19 02:48:13;;;;;;;0.30;0.30;;;;;;;;;;4954671;28;20253;-69
2021/12/19 02:50:46;;;;;;;0.53;0.37;;;;;;;;;;4973986;28;20293;-69
2021/12/19 02:53:22;;;;;;;0.40;0.40;;;;;;;;;;4974925;28;20208;-68
2021/12/19 02:55:52;;;;;;;0.33;0.30;;;;;;;;;;4968348;28;20650;-68
2021/12/19 02:58:21;;;;;;;0.27;0.27;;;;;;;;;;4974357;28;20686;-69
2021/12/19 03:00:50;;;;;;;0.20;0.20;;;;;;;;;;4974597;28;20210;-69
2021/12/19 03:03:20;;;;;;;0.60;0.33;;;;;;;;;;4974708;28;20253;-69
2021/12/19 03:05:49;;;;;;;0.73;0.20;;;;;;;;;;4973472;28;20666;-69
2021/12/19 03:08:20;;;;;;;0.10;0.10;;;;;;;;;;4973827;28;20260;-68
2021/12/19 03:17:56;;;;;;;0.27;0.27;;;;;;;;;;4955347;29;20214;-68
2021/12/19 03:19:13;;;;;;;0.77;0.50;;;;;;;;;;4973201;28;20225;-68
2021/12/19 03:21:43;;;;;;;0.27;0.27;;;;;;;;;;4974599;28;20721;-68
2021/12/19 03:24:13;;;;;;;0.23;0.23;;;;;;;;;;4974357;28;20737;-69
2021/12/19 03:26:42;;;;;;;0.23;0.23;;;;;;;;;;4974111;28;20229;-68
2021/12/19 03:29:11;;;;;;;0.20;0.20;;;;;;;;;;4974077;28;20201;-68
2021/12/19 03:31:41;;;;;;;0.40;0.30;;;;;;;;;;4974579;28;20233;-68
2021/12/19 03:34:10;;;;;;;0.20;0.20;;;;;;;;;;4967374;28;20202;-69
2021/12/19 03:36:40;;;;;;;0.30;0.30;;;;;;;;;;4965471;28;20230;-68
2021/12/19 03:39:25;;;;;;;0.30;0.30;;;;;;;;;;4973587;28;20225;-70
2021/12/19 03:41:56;;;;;;;0.30;0.30;;;;;;;;;;4954691;28;20717;-69
2021/12/19 03:44:25;;;;;;;0.20;0.20;;;;;;;;;;4957318;28;20574;-68
2021/12/19 03:46:55;;;;;;;0.57;0.30;;;;;;;;;;4966722;28;20272;-72
2021/12/19 03:49:25;;;;;;;0.50;0.37;;;;;;;;;;4973240;28;20209;-69
2021/12/19 03:51:54;;;;;;;0.40;0.30;;;;;;;;;;4974070;28;20256;-69
2021/12/19 03:54:24;;;;;;;0.37;0.37;;;;;;;;;;4974140;28;20190;-69
2021/12/19 03:56:53;;;;;;;0.73;0.27;;;;;;;;;;4973775;28;20261;-69
2021/12/19 03:59:26;;;;;;;0.20;0.20;;;;;;;;;;4973515;28;20315;-68
2021/12/19 04:01:55;;;;;;;0.30;0.20;;;;;;;;;;4973677;28;20209;-70
2021/12/19 04:04:24;;;;;;;0.30;0.20;;;;;;;;;;4973394;28;20657;-69
2021/12/19 04:06:55;;;;;;;0.10;0.10;;;;;;;;;;4973824;28;20237;-69
2021/12/19 04:09:24;;;;;;;0.07;0.07;;;;;;;;;;4973492;28;20194;-69
2021/12/19 04:11:55;;;;;;;0.10;0.10;;;;;;;;;;4964078;28;20206;-69
2021/12/19 04:14:26;;;;;;;0.20;0.20;;;;;;;;;;4954093;29;20216;-69
2021/12/19 04:16:55;;;;;;;0.10;0.10;;;;;;;;;;4966432;28;20276;-70
2021/12/19 04:19:25;;;;;;;0.10;0.10;;;;;;;;;;4972488;28;20284;-69
2021/12/19 04:21:55;;;;;;;0.00;0.00;;;;;;;;;;4973990;28;20210;-69
2021/12/19 04:24:24;;;;;;;0.03;0.03;;;;;;;;;;4973603;28;20210;-69
2021/12/19 04:26:54;;;;;;;0.20;0.20;;;;;;;;;;4972206;28;20308;-69
2021/12/19 04:29:24;;;;;;;0.20;0.20;;;;;;;;;;4972849;28;20578;-69
2021/12/19 04:31:55;;;;;;;0.23;0.20;;;;;;;;;;4973435;28;20297;-69
2021/12/19 04:34:25;;;;;;;0.40;0.33;;;;;;;;;;4972317;28;20209;-69
2021/12/19 04:37:00;;;;;;;0.47;0.33;;;;;;;;;;4973422;28;20233;-69
2021/12/19 04:39:37;;;;;;;0.27;0.27;;;;;;;;;;4973116;28;20570;-68
2021/12/19 04:51:06;;;;;;;0.93;0.37;;;;;;;;;;4972746;28;20260;-69
2021/12/19 04:53:49;;;;;;;0.37;0.37;;;;;;;;;;4973651;28;20240;-69
2021/12/19 04:56:32;;;;;;;1.07;0.40;;;;;;;;;;4972034;28;20198;-69
2021/12/19 04:59:35;;;;;;;0.47;0.37;;;;;;;;;;4976885;28;20221;-69
2021/12/19 05:02:12;;;;;;;0.40;0.30;;;;;;;;;;4976626;28;20205;-69
2021/12/19 05:05:17;;;;;;;0.33;0.30;;;;;;;;;;4976423;28;20288;-69
2021/12/19 05:16:04;;;;;;;0.63;0.53;;;;;;;;;;4972346;28;20201;-70
2021/12/19 05:18:37;;;;;;;0.40;0.37;;;;;;;;;;4975988;28;20215;-69
2021/12/19 05:21:13;;;;;;;0.47;0.40;;;;;;;;;;4976314;28;20212;-69
2021/12/19 05:24:04;;;;;;;0.20;0.20;;;;;;;;;;4976705;28;20252;-70
2021/12/19 05:26:33;;;;;;;0.20;0.20;;;;;;;;;;4976733;28;20229;-69
2021/12/19 05:29:03;;;;;;;0.73;0.40;;;;;;;;;;4976482;28;20206;-72
2021/12/19 05:31:34;;;;;;;0.53;0.30;;;;;;;;;;4976172;28;20198;-70
2021/12/19 05:34:03;;;;;;;0.40;0.40;;;;;;;;;;4975406;28;20264;-70
2021/12/19 05:45:15;;;;;;;0.50;0.50;;;;;;;;;;4975723;28;20202;-69
2021/12/19 05:47:47;;;;;;;0.83;0.83;;;;;;;;;;4976344;28;20230;-68
2021/12/19 05:50:16;;;;;;;0.70;0.57;;;;;;;;;;4975744;28;20211;-68
2021/12/19 05:52:47;;;;;;;0.53;0.53;;;;;;;;;;4974586;28;20213;-68
2021/12/19 05:55:17;;;;;;;0.30;0.30;;;;;;;;;;4968845;28;20301;-69
2021/12/19 05:57:47;;;;;;;0.43;0.30;;;;;;;;;;4975867;28;20225;-69
2021/12/19 06:00:17;;;;;;;0.50;0.33;;;;;;;;;;4975029;28;20218;-68
2021/12/19 06:02:47;;;;;;;0.50;0.40;;;;;;;;;;4975299;28;20221;-69
2021/12/19 06:05:17;;;;;;;1.03;0.53;;;;;;;;;;4975695;28;20206;-69
2021/12/19 06:07:48;;;;;;;0.33;0.33;;;;;;;;;;4975695;28;20241;-69
2021/12/19 06:10:19;;;;;;;0.20;0.17;;;;;;;;;;4968505;28;20199;-69
2021/12/19 06:12:48;;;;;;;0.20;0.20;;;;;;;;;;4975727;28;20220;-68
2021/12/19 06:15:17;;;;;;;0.20;0.20;;;;;;;;;;4975442;28;20611;-68
2021/12/19 06:17:47;;;;;;;0.87;0.30;;;;;;;;;;4975336;28;20225;-69
2021/12/19 06:20:17;;;;;;;0.10;0.10;;;;;;;;;;4973175;28;20218;-69
2021/12/19 06:22:48;;;;;;;1.13;0.37;;;;;;;;;;4975441;28;20210;-68
2021/12/19 06:25:17;;;;;;;0.30;0.23;;;;;;;;;;4976056;28;20527;-68
2021/12/19 06:27:46;;;;;;;1.90;0.30;;;;;;;;;;4975050;28;20222;-68
2021/12/19 06:30:16;;;;;;;0.20;0.20;;;;;;;;;;4974799;28;20202;-68
2021/12/19 06:32:45;;;;;;;0.67;0.37;;;;;;;;;;4974691;28;20209;-69
2021/12/19 06:35:19;;;;;;;0.20;0.20;;;;;;;;;;4974153;28;20214;-68
2021/12/19 06:37:50;;;;;;;0.20;0.20;;;;;;;;;;4975296;28;20226;-69
2021/12/19 06:40:20;;;;;;;0.50;0.20;;;;;;;;;;4974370;28;20214;-68
2021/12/19 06:42:50;;;;;;;0.13;0.13;;;;;;;;;;4974841;28;20206;-69
2021/12/19 06:45:19;;;;;;;0.20;0.20;;;;;;;;;;4975091;28;20202;-69
2021/12/19 06:47:48;;;;;;;0.50;0.23;;;;;;;;;;4974754;28;20568;-69
2021/12/19 06:50:22;;;;;;;0.20;0.20;;;;;;;;;;4974249;28;20202;-68
2021/12/19 06:52:53;;;;;;;0.20;0.20;;;;;;;;;;4974644;28;20210;-69
2021/12/19 06:55:23;;;;;;;0.67;0.20;;;;;;;;;;4974570;28;20252;-69
2021/12/19 06:57:52;;;;;;;0.13;0.13;;;;;;;;;;4973234;28;20226;-69
2021/12/19 07:00:23;;;;;;;1.03;0.20;;;;;;;;;;4960754;28;20481;-69
2021/12/19 07:02:54;;;;;;;0.27;0.23;;;;;;;;;;4974370;28;20304;-69
2021/12/19 07:05:24;;;;;;;0.20;0.20;;;;;;;;;;4974725;28;20198;-70
2021/12/19 07:07:54;;;;;;;0.20;0.20;;;;;;;;;;4974271;28;20235;-75
2021/12/19 07:10:23;;;;;;;0.10;0.10;;;;;;;;;;4974342;28;20628;-74
2021/12/19 07:12:53;;;;;;;0.20;0.20;;;;;;;;;;4973965;28;20217;-74
2021/12/19 07:15:24;;;;;;;0.47;0.30;;;;;;;;;;4974713;28;20474;-74
2021/12/19 07:17:55;;;;;;;0.33;0.30;;;;;;;;;;4973407;28;20261;-75
2021/12/19 07:20:25;;;;;;;0.13;0.13;;;;;;;;;;4973833;28;20264;-74
2021/12/19 07:22:56;;;;;;;0.30;0.30;;;;;;;;;;4973611;28;20574;-74
2021/12/19 07:25:25;;;;;;;0.20;0.20;;;;;;;;;;4974348;28;20202;-74
2021/12/19 07:27:55;;;;;;;0.40;0.37;;;;;;;;;;4961280;28;20229;-74
2021/12/19 07:30:26;;;;;;;0.53;0.43;;;;;;;;;;4970308;28;20198;-75
2021/12/19 07:32:57;;;;;;;1.07;0.43;;;;;;;;;;4973218;28;20205;-75
2021/12/19 07:35:26;;;;;;;0.33;0.33;;;;;;;;;;4974335;28;20646;-75
2021/12/19 07:37:59;;;;;;;1.27;0.43;;;;;;;;;;4973979;28;20685;-75
2021/12/19 07:40:36;;;;;;;0.30;0.30;;;;;;;;;;4969530;28;21239;-75
2021/12/19 07:43:10;;;;;;;1.03;0.63;;;;;;;;;;4968145;28;20198;-74
2021/12/19 07:45:39;;;;;;;1.13;0.20;;;;;;;;;;4963156;28;20251;-74
2021/12/19 07:48:09;;;;;;;0.30;0.30;;;;;;;;;;4972079;28;20623;-75
2021/12/19 07:50:38;;;;;;;0.37;0.37;;;;;;;;;;4969752;28;20572;-75
2021/12/19 07:53:09;;;;;;;0.87;0.40;;;;;;;;;;4971834;28;20291;-74
2021/12/19 07:55:38;;;;;;;0.63;0.37;;;;;;;;;;4971502;28;20662;-75
2021/12/19 07:58:07;;;;;;;0.30;0.30;;;;;;;;;;4966737;28;20229;-74
2021/12/19 08:00:36;;;;;;;0.43;0.43;;;;;;;;;;4969967;28;20308;-75
2021/12/19 08:03:09;;;;;;;0.40;0.40;;;;;;;;;;4973828;28;20712;-75
2021/12/19 08:05:38;;;;;;;0.33;0.33;;;;;;;;;;4973055;28;20636;-75
2021/12/19 08:08:11;;;;;;;0.37;0.37;;;;;;;;;;4974032;28;20232;-75
2021/12/19 08:13:27;;;;;;;0.63;0.37;;;;;;;;;;4973769;28;20198;-75
2021/12/19 08:15:57;;;;;;;0.57;0.53;;;;;;;;;;4973419;28;20646;-74
2021/12/19 08:18:26;;;;;;;1.60;0.53;;;;;;;;;;4970572;28;20727;-74
2021/12/19 08:20:55;;;;;;;1.70;0.53;;;;;;;;;;4973291;28;20228;-74
2021/12/19 08:23:30;;;;;;;1.20;0.40;;;;;;;;;;4972382;28;20227;-74
2021/12/19 08:25:59;;;;;;;0.57;0.33;;;;;;;;;;4972510;28;20232;-74
2021/12/19 08:28:28;;;;;;;0.20;0.20;;;;;;;;;;4970366;28;20634;-74
2021/12/19 08:30:57;;;;;;;0.33;0.30;;;;;;;;;;4970009;28;20300;-74
2021/12/19 08:33:27;;;;;;;0.40;0.33;;;;;;;;;;4981179;28;20673;-74
2021/12/19 08:35:57;;;;;;;0.23;0.23;;;;;;;;;;4976826;28;20572;-74
2021/12/19 08:38:26;;;;;;;0.53;0.43;;;;;;;;;;4976449;28;20234;-74
2021/12/19 08:40:58;;;;;;;0.10;0.10;;;;;;;;;;4974511;28;20218;-74
2021/12/19 08:43:28;;;;;;;0.40;0.30;;;;;;;;;;4976734;28;20252;-74
2021/12/19 08:45:57;;;;;;;0.40;0.40;;;;;;;;;;4977203;28;20233;-74
2021/12/19 08:48:26;;;;;;;0.67;0.53;;;;;;;;;;4974924;28;20225;-74
2021/12/19 08:50:55;;;;;;;0.27;0.27;;;;;;;;;;4975924;28;20198;-74
2021/12/19 08:53:24;;;;;;;0.40;0.40;;;;;;;;;;4958044;28;20215;-74
2021/12/19 08:55:53;;;;;;;1.20;0.57;;;;;;;;;;4961120;28;20248;-74
2021/12/19 08:58:25;;;;;;;0.43;0.40;;;;;;;;;;4975840;28;20276;-73
2021/12/19 09:00:57;;;;;;;1.60;0.40;;;;;;;;;;4968443;28;20205;-73
2021/12/19 09:03:27;;;;;;;0.27;0.27;;;;;;;;;;4976734;28;20253;-74
2021/12/19 09:05:56;;;;;;;0.40;0.37;;;;;;;;;;4961019;28;20266;-74
2021/12/19 09:08:26;;;;;;;0.77;0.40;;;;;;;;;;4973038;28;20706;-73
2021/12/19 09:10:56;;;;;;;0.57;0.53;;;;;;;;;;4976694;28;20240;-74
2021/12/19 09:13:29;;;;;;;0.77;0.47;;;;;;;;;;4973977;28;20253;-74
2021/12/19 09:15:59;;;;;;;1.20;0.43;;;;;;;;;;4976601;28;20215;-74
2021/12/19 09:18:28;;;;;;;0.77;0.50;;;;;;;;;;4975674;28;20260;-74
2021/12/19 09:20:57;;;;;;;1.47;0.47;;;;;;;;;;4976569;28;20569;-73
2021/12/19 09:23:28;;;;;;;1.03;0.30;;;;;;;;;;4977064;28;20213;-74
2021/12/19 09:25:57;;;;;;;0.60;0.40;;;;;;;;;;4976433;28;20253;-74
2021/12/19 09:28:28;;;;;;;0.83;0.40;;;;;;;;;;4976613;28;20222;-74
2021/12/19 09:30:57;;;;;;;0.37;0.30;;;;;;;;;;4976027;28;20292;-74
2021/12/19 09:33:26;;;;;;;0.73;0.37;;;;;;;;;;4976138;28;20193;-74
2021/12/19 09:35:57;;;;;;;0.50;0.40;;;;;;;;;;4976418;28;20205;-74
2021/12/19 09:38:26;;;;;;;0.73;0.30;;;;;;;;;;4976578;28;20651;-73
2021/12/19 09:41:00;;;;;;;0.50;0.30;;;;;;;;;;4975441;28;20202;-71
2021/12/19 09:43:42;;;;;;;0.30;0.20;;;;;;;;;;4975057;28;20563;-69
2021/12/19 09:46:13;;;;;;;0.20;0.20;;;;;;;;;;4975878;28;20284;-69
2021/12/19 09:48:43;;;;;;;0.47;0.20;;;;;;;;;;4976539;28;20607;-69
2021/12/19 09:51:13;;;;;;;0.37;0.20;;;;;;;;;;4975620;28;20198;-69
2021/12/19 09:53:43;;;;;;;0.53;0.17;;;;;;;;;;4976363;28;20237;-69
2021/12/19 09:56:13;;;;;;;0.17;0.10;;;;;;;;;;4962825;28;20194;-69
2021/12/19 09:58:44;;;;;;;0.13;0.13;;;;;;;;;;4975553;28;20662;-69
2021/12/19 10:01:14;;;;;;;0.17;0.17;;;;;;;;;;4975266;28;20217;-70
2021/12/19 10:03:43;;;;;;;0.37;0.30;;;;;;;;;;4976002;28;20589;-69
2021/12/19 10:06:18;;;;;;;0.73;0.30;;;;;;;;;;4975821;28;20213;-69
2021/12/19 10:08:52;;;;;;;0.57;0.20;;;;;;;;;;4975329;28;20213;-69
2021/12/19 10:11:31;;;;;;;0.20;0.10;;;;;;;;;;4975966;28;20210;-69
2021/12/19 10:14:03;;;;;;;0.20;0.20;;;;;;;;;;4975236;28;20190;-68
2021/12/19 10:16:32;;;;;;;0.00;0.00;;;;;;;;;;4975226;28;20233;-68
2021/12/19 10:19:02;;;;;;;0.20;0.17;;;;;;;;;;4975198;28;20289;-68
2021/12/19 10:21:36;;;;;;;0.10;0.10;;;;;;;;;;4975925;28;20217;-69
2021/12/19 10:24:06;;;;;;;0.87;0.27;;;;;;;;;;4630696;28;10000545;-69
2021/12/19 10:26:47;;;;;;;0.27;0.23;;;;;;;;;;4972562;28;20233;-70
2021/12/19 10:29:18;;;;;;;2.20;0.30;;;;;;;;;;4971789;28;20194;-69
2021/12/19 10:32:03;;;;;;;0.33;0.30;;;;;;;;;;4971382;28;20201;-69
2021/12/19 10:34:32;;;;;;;0.67;0.20;;;;;;;;;;4972340;28;20531;-69
2021/12/19 10:37:14;;;;;;;0.30;0.30;;;;;;;;;;4972265;28;20235;-69
2021/12/19 10:39:45;;;;;;;0.63;0.63;;;;;;;;;;4971966;28;20210;-70
2021/12/19 10:42:15;;;;;;;1.07;0.50;;;;;;;;;;4971677;28;20409;-69
2021/12/19 10:47:47;;;;;;;0.30;0.20;;;;;;;;;;4931855;29;20318;-69
2021/12/19 10:50:16;;;;;;;1.93;0.30;;;;;;;;;;4951036;28;20570;-69
2021/12/19 10:52:47;;;;;;;0.57;0.27;;;;;;;;;;4973455;28;20186;-69
2021/12/19 10:55:17;;;;;;;1.27;0.40;;;;;;;;;;4974344;28;20214;-69
2021/12/19 10:57:47;;;;;;;0.50;0.33;;;;;;;;;;4971687;28;20682;-69
2021/12/19 11:00:26;;;;;;;0.30;0.20;;;;;;;;;;4964755;28;20202;-69
2021/12/19 11:02:57;;;;;;;0.47;0.33;;;;;;;;;;4973423;28;20696;-70
2021/12/19 11:05:46;;;;;;;0.27;0.27;;;;;;;;;;4970228;28;20678;-69
2021/12/19 11:08:15;;;;;;;0.43;0.23;;;;;;;;;;4968983;28;20257;-69
2021/12/19 11:10:44;;;;;;;0.20;0.10;;;;;;;;;;4967622;28;20265;-69
2021/12/19 11:13:14;;;;;;;0.37;0.30;;;;;;;;;;4967749;28;20597;-69
2021/12/19 11:15:45;;;;;;;0.23;0.20;;;;;;;;;;4971076;28;20611;-69
2021/12/19 11:18:14;;;;;;;0.20;0.20;;;;;;;;;;4972884;28;20229;-69
2021/12/19 11:20:50;;;;;;;0.20;0.20;;;;;;;;;;4974388;28;20212;-69
2021/12/19 11:23:19;;;;;;;1.10;0.30;;;;;;;;;;4955931;28;20219;-69
2021/12/19 11:25:48;;;;;;;0.67;0.27;;;;;;;;;;4966872;28;20681;-70
2021/12/19 11:28:17;;;;;;;0.20;0.10;;;;;;;;;;4964850;28;20222;-70
2021/12/19 11:30:48;;;;;;;0.47;0.30;;;;;;;;;;4960824;28;20226;-74
2021/12/19 11:33:24;;;;;;;0.33;0.23;;;;;;;;;;4980335;28;20221;-75
2021/12/19 11:35:56;;;;;;;0.20;0.20;;;;;;;;;;4961158;28;20246;-74
2021/12/19 11:38:26;;;;;;;0.53;0.30;;;;;;;;;;4973781;28;20248;-74
2021/12/19 11:40:55;;;;;;;0.20;0.20;;;;;;;;;;4971332;28;20201;-74
2021/12/19 11:43:37;;;;;;;0.10;0.10;;;;;;;;;;4967210;28;20257;-75
2021/12/19 11:46:14;;;;;;;0.47;0.23;;;;;;;;;;4970579;28;20256;-74
2021/12/19 11:48:45;;;;;;;0.20;0.20;;;;;;;;;;4973534;28;20201;-74
2021/12/19 11:51:19;;;;;;;0.20;0.20;;;;;;;;;;4973944;28;20205;-74
2021/12/19 11:53:48;;;;;;;0.27;0.27;;;;;;;;;;4972873;28;20665;-75
2021/12/19 11:56:19;;;;;;;0.23;0.23;;;;;;;;;;4971729;28;20210;-74
2021/12/19 11:58:49;;;;;;;0.50;0.27;;;;;;;;;;4971524;28;20212;-74
2021/12/19 12:01:25;;;;;;;0.83;0.20;;;;;;;;;;4963818;28;20229;-74
2021/12/19 12:03:57;;;;;;;0.77;0.10;;;;;;;;;;4970517;28;20276;-74
2021/12/19 12:06:29;;;;;;;1.27;0.20;;;;;;;;;;4972490;28;20237;-74
2021/12/19 12:09:26;;;;;;;0.57;0.30;;;;;;;;;;4971981;28;20248;-74
2021/12/19 12:12:11;;;;;;;0.30;0.30;;;;;;;;;;4972517;28;20209;-73
2021/12/19 12:14:42;;;;;;;0.27;0.20;;;;;;;;;;4973493;28;20205;-74
2021/12/19 12:17:19;;;;;;;0.10;0.10;;;;;;;;;;4954127;28;20222;-74
2021/12/19 12:19:51;;;;;;;1.13;0.30;;;;;;;;;;4954379;28;20206;-74
2021/12/19 12:22:48;;;;;;;0.30;0.20;;;;;;;;;;4973453;28;20202;-74
2021/12/19 12:25:19;;;;;;;0.33;0.13;;;;;;;;;;4966431;28;20202;-74
2021/12/19 12:27:53;;;;;;;0.40;0.20;;;;;;;;;;4973101;28;20230;-74
2021/12/19 12:30:25;;;;;;;0.87;0.10;;;;;;;;;;4972041;28;20202;-74
2021/12/19 12:33:00;;;;;;;0.20;0.20;;;;;;;;;;4957808;28;20240;-74
2021/12/19 12:35:31;;;;;;;0.73;0.17;;;;;;;;;;4973444;28;20213;-74
2021/12/19 12:38:00;;;;;;;0.63;0.20;;;;;;;;;;4973106;28;20217;-74
2021/12/19 12:40:42;;;;;;;0.20;0.20;;;;;;;;;;4971143;28;20206;-74
2021/12/19 12:43:13;;;;;;;0.77;0.20;;;;;;;;;;4973000;28;20240;-74
2021/12/19 12:45:53;;;;;;;0.20;0.20;;;;;;;;;;4972946;28;20212;-74
2021/12/19 12:48:35;;;;;;;1.07;0.10;;;;;;;;;;4628969;28;10000094;-70
2021/12/19 12:51:06;;;;;;;0.20;0.20;;;;;;;;;;4970880;28;20708;-69
2021/12/19 12:53:36;;;;;;;0.10;0.10;;;;;;;;;;4973159;28;20196;-69
2021/12/19 12:56:11;;;;;;;0.10;0.10;;;;;;;;;;4973090;28;20213;-69
2021/12/19 12:58:41;;;;;;;0.87;0.10;;;;;;;;;;4973300;28;20696;-69
2021/12/19 13:01:19;;;;;;;0.73;0.17;;;;;;;;;;4971221;28;20261;-69
2021/12/19 13:04:04;;;;;;;0.30;0.20;;;;;;;;;;4972285;28;20234;-68
2021/12/19 13:06:41;;;;;;;2.80;0.20;;;;;;;;;;4971043;28;20228;-69
2021/12/19 13:09:15;;;;;;;0.67;0.27;;;;;;;;;;4972381;28;20206;-69
2021/12/19 13:11:45;;;;;;;0.20;0.20;;;;;;;;;;4967950;28;20209;-69
2021/12/19 13:14:14;;;;;;;0.20;0.20;;;;;;;;;;4972261;28;20285;-69
2021/12/19 13:16:44;;;;;;;1.80;0.17;;;;;;;;;;4971061;28;20300;-69
2021/12/19 13:19:28;;;;;;;1.97;0.23;;;;;;;;;;4973201;28;20557;-69
2021/12/19 13:21:59;;;;;;;1.30;0.20;;;;;;;;;;4976419;28;20205;-69
2021/12/19 13:24:30;;;;;;;0.20;0.20;;;;;;;;;;4976058;28;20265;-69
2021/12/19 13:27:06;;;;;;;0.77;0.20;;;;;;;;;;4976103;28;20647;-69
2021/12/19 13:29:35;;;;;;;0.83;0.10;;;;;;;;;;4969027;28;20749;-69
2021/12/19 13:35:06;;;;;;;0.40;0.20;;;;;;;;;;4972039;28;20205;-69
2021/12/19 13:37:49;;;;;;;0.40;0.20;;;;;;;;;;4973702;28;20221;-74
2021/12/19 13:40:18;;;;;;;0.27;0.20;;;;;;;;;;4968057;28;20631;-74
2021/12/19 13:42:48;;;;;;;0.37;0.20;;;;;;;;;;4969608;28;20210;-74
2021/12/19 13:45:24;;;;;;;0.10;0.10;;;;;;;;;;4973618;28;20226;-73
2021/12/19 13:47:54;;;;;;;0.20;0.10;;;;;;;;;;4968162;28;20756;-74
2021/12/19 13:50:25;;;;;;;0.23;0.20;;;;;;;;;;4971110;28;20203;-74
2021/12/19 13:52:56;;;;;;;0.10;0.10;;;;;;;;;;4964121;28;20213;-74
2021/12/19 13:55:28;;;;;;;0.87;0.20;;;;;;;;;;4969818;28;20591;-74
2021/12/19 13:58:15;;;;;;;0.37;0.20;;;;;;;;;;4973671;28;20233;-74
2021/12/19 14:00:47;;;;;;;1.80;0.37;;;;;;;;;;4961266;28;20213;-74
2021/12/19 14:03:17;;;;;;;0.27;0.13;;;;;;;;;;4979883;28;20730;-74
2021/12/19 14:05:49;;;;;;;0.73;0.27;;;;;;;;;;4976598;28;20281;-74
2021/12/19 14:08:21;;;;;;;0.10;0.10;;;;;;;;;;4978898;28;20236;-74
2021/12/19 14:11:05;;;;;;;0.10;0.10;;;;;;;;;;4974077;28;20202;-69
2021/12/19 14:13:37;;;;;;;0.17;0.17;;;;;;;;;;4975673;28;20212;-70
2021/12/19 14:16:09;;;;;;;1.30;0.20;;;;;;;;;;4970433;28;20233;-70
2021/12/19 14:18:41;;;;;;;1.13;0.30;;;;;;;;;;4966462;28;20294;-70
2021/12/19 14:21:29;;;;;;;1.60;0.17;;;;;;;;;;4967292;28;20543;-69
2021/12/19 14:24:14;;;;;;;1.20;0.13;;;;;;;;;;4971717;28;20230;-69
2021/12/19 14:26:45;;;;;;;0.50;0.20;;;;;;;;;;4974094;28;20225;-70
2021/12/19 14:29:18;;;;;;;0.10;0.10;;;;;;;;;;4964129;28;20209;-69
2021/12/19 14:31:48;;;;;;;0.37;0.20;;;;;;;;;;4963808;28;20308;-69
2021/12/19 14:34:28;;;;;;;0.20;0.20;;;;;;;;;;4970150;28;20202;-70
2021/12/19 14:37:14;;;;;;;1.53;0.40;;;;;;;;;;4958016;28;20269;-69
2021/12/19 14:40:15;;;;;;;1.27;0.37;;;;;;;;;;4976913;28;20732;-69
2021/12/19 14:42:48;;;;;;;0.50;0.30;;;;;;;;;;4969172;28;20221;-69
2021/12/19 14:45:19;;;;;;;1.80;0.63;;;;;;;;;;4970710;28;20250;-69
2021/12/19 14:48:09;;;;;;;1.70;0.33;;;;;;;;;;4625029;28;9999741;-71
2021/12/19 14:50:50;;;;;;;1.43;0.30;;;;;;;;;;4966739;28;20216;-70
2021/12/19 14:53:38;;;;;;;0.53;0.27;;;;;;;;;;4962730;28;20297;-70
2021/12/19 14:56:18;;;;;;;0.20;0.20;;;;;;;;;;4966033;28;20208;-74
2021/12/19 14:58:48;;;;;;;0.63;0.30;;;;;;;;;;4968210;28;20301;-74
2021/12/19 15:01:30;;;;;;;0.83;0.50;;;;;;;;;;4961435;28;20557;-74
2021/12/19 15:04:05;;;;;;;0.53;0.33;;;;;;;;;;4958154;28;20220;-73
2021/12/19 15:06:40;;;;;;;0.93;0.30;;;;;;;;;;4967824;28;20222;-74
2021/12/19 15:09:14;;;;;;;0.57;0.30;;;;;;;;;;4968382;28;20530;-73
2021/12/19 15:11:47;;;;;;;0.20;0.20;;;;;;;;;;4968888;28;20237;-74
2021/12/19 15:14:17;;;;;;;0.20;0.20;;;;;;;;;;4970169;28;20264;-73
2021/12/19 15:16:47;;;;;;;0.20;0.20;;;;;;;;;;4975270;28;20237;-73
2021/12/19 15:19:17;;;;;;;0.20;0.20;;;;;;;;;;4971355;28;20550;-73
2021/12/19 15:21:47;;;;;;;0.20;0.20;;;;;;;;;;4965226;28;20214;-73
2021/12/19 15:24:25;;;;;;;0.20;0.20;;;;;;;;;;4962315;28;20209;-74
2021/12/19 15:27:03;;;;;;;0.53;0.20;;;;;;;;;;4969582;28;20229;-74
2021/12/19 15:29:33;;;;;;;0.17;0.17;;;;;;;;;;4959583;28;20221;-73
2021/12/19 15:32:05;;;;;;;1.80;0.20;;;;;;;;;;4968668;28;20214;-74
2021/12/19 15:34:42;;;;;;;0.20;0.13;;;;;;;;;;4955509;28;20286;-74
2021/12/19 15:37:55;;;;;;;0.50;0.13;;;;;;;;;;4964342;28;20221;-75
2021/12/19 15:40:42;;;;;;;0.10;0.10;;;;;;;;;;4968340;28;20217;-74
2021/12/19 15:43:34;;;;;;;2.27;0.20;;;;;;;;;;4956753;28;20205;-74
2021/12/19 15:46:20;;;;;;;0.53;0.20;;;;;;;;;;4953442;28;20222;-73
2021/12/19 15:49:08;;;;;;;0.30;0.13;;;;;;;;;;4963109;28;20210;-74
2021/12/19 15:55:12;;;;;;;1.10;0.20;;;;;;;;;;4935988;28;20296;-74
2021/12/19 16:01:01;;;;;;;0.77;0.30;;;;;;;;;;4964689;28;20264;-74
2021/12/19 16:03:49;;;;;;;0.20;0.10;;;;;;;;;;4962959;28;20241;-74
2021/12/19 16:06:31;;;;;;;1.33;0.20;;;;;;;;;;4963899;28;20229;-74
2021/12/19 16:09:20;;;;;;;1.60;0.13;;;;;;;;;;4971030;28;20673;-75
2021/12/19 16:12:22;;;;;;;0.73;0.23;;;;;;;;;;4973362;28;20206;-75
2021/12/19 16:18:26;;;;;;;;;;;;;;;;;;;;;